createdAt,value
2019-02-07T00:01:31.924Z,49.40
2019-02-07T00:07:03.755Z,48.10
2019-02-07T00:09:47.016Z,34.13
2019-02-07T00:12:29.262Z,38.20
2019-02-07T00:15:12.197Z,48.40
2019-02-07T00:17:54.861Z,37.23
2019-02-07T00:20:40.958Z,42.43
2019-02-07T00:23:27.048Z,34.70
2019-02-07T00:26:09.474Z,32.63
2019-02-07T00:28:39.930Z,40.83
2019-02-07T00:31:29.287Z,40.90
2019-02-07T00:34:11.536Z,44.00
2019-02-07T00:36:59.233Z,34.97
2019-02-07T00:39:44.540Z,34.37
2019-02-07T00:42:26.759Z,34.00
2019-02-07T00:45:09.218Z,38.33
2019-02-07T00:47:53.275Z,31.13
2019-02-07T00:50:37.487Z,31.07
2019-02-07T00:53:19.873Z,34.47
2019-02-07T00:56:02.116Z,33.57
2019-02-07T01:04:43.366Z,35.33
2019-02-07T01:07:29.096Z,24.30
2019-02-07T01:10:12.640Z,28.77
2019-02-07T01:12:56.617Z,27.23
2019-02-07T01:15:41.012Z,34.27
2019-02-07T01:18:22.873Z,25.30
2019-02-07T01:21:05.200Z,28.47
2019-02-07T01:23:47.295Z,45.43
2019-02-07T01:26:29.572Z,24.90
2019-02-07T01:29:12.544Z,31.60
2019-02-07T01:31:58.933Z,49.40
2019-02-07T01:34:45.795Z,33.20
2019-02-07T01:43:34.950Z,35.27
2019-02-07T01:46:20.736Z,39.37
2019-02-07T02:01:05.134Z,40.57
2019-02-07T02:06:31.767Z,29.97
2019-02-07T02:15:07.075Z,20.97
2019-02-07T02:17:49.164Z,33.77
2019-02-07T02:20:32.404Z,51.17
2019-02-07T02:23:18.689Z,44.27
2019-02-07T02:26:00.732Z,44.40
2019-02-07T02:28:42.628Z,26.47
2019-02-07T02:31:27.480Z,23.47
2019-02-07T02:36:59.090Z,32.00
2019-02-07T02:39:29.531Z,43.40
2019-02-07T02:42:17.388Z,37.30
2019-02-07T02:44:59.324Z,41.37
2019-02-07T02:47:41.550Z,46.23
2019-02-07T02:50:25.884Z,54.50
2019-02-07T02:53:08.283Z,34.63
2019-02-07T02:55:50.668Z,35.40
2019-02-07T02:58:32.690Z,46.17
2019-02-07T03:01:36.795Z,39.00
2019-02-07T03:10:43.664Z,45.47
2019-02-07T03:13:33.153Z,43.67
2019-02-07T03:16:34.248Z,49.63
2019-02-07T03:19:38.662Z,26.50
2019-02-07T03:22:40.822Z,38.97
2019-02-07T03:25:42.725Z,79.23
2019-02-07T03:28:54.197Z,33.50
2019-02-07T03:31:48.609Z,45.17
2019-02-07T03:34:30.354Z,36.33
2019-02-07T03:40:19.692Z,43.60
2019-02-07T03:46:09.351Z,36.67
2019-02-07T03:49:04.110Z,21.00
2019-02-07T03:52:05.984Z,31.07
2019-02-07T03:54:51.212Z,28.63
2019-02-07T03:57:52.425Z,35.67
2019-02-07T04:04:18.893Z,48.67
2019-02-07T04:07:22.605Z,31.43
2019-02-07T04:10:19.008Z,36.70
2019-02-07T04:13:23.315Z,22.57
2019-02-07T04:16:15.549Z,18.90
2019-02-07T04:19:26.874Z,20.60
2019-02-07T04:22:19.221Z,15.37
2019-02-07T04:25:20.923Z,16.97
2019-02-07T04:28:32.572Z,28.23
2019-02-07T04:31:22.242Z,28.70
2019-02-07T04:34:26.468Z,20.67
2019-02-07T04:37:30.595Z,27.03
2019-02-07T04:40:37.920Z,21.87
2019-02-07T04:43:29.312Z,27.50
2019-02-07T04:46:33.465Z,27.93
2019-02-07T04:49:43.317Z,25.97
2019-02-07T04:52:45.715Z,25.67
2019-02-07T04:58:31.548Z,21.23
2019-02-07T05:01:28.116Z,22.50
2019-02-07T05:04:28.831Z,24.47
2019-02-07T05:10:45.349Z,23.23
2019-02-07T05:13:33.447Z,18.30
2019-02-07T05:16:15.324Z,21.27
2019-02-07T05:19:16.187Z,24.60
2019-02-07T05:25:42.861Z,29.43
2019-02-07T06:19:53.706Z,27.37
2019-02-07T06:23:01.303Z,18.80
2019-02-07T06:26:03.671Z,15.23
2019-02-07T06:29:09.042Z,25.07
2019-02-07T06:32:03.161Z,17.30
2019-02-07T06:35:07.810Z,23.27
2019-02-07T06:38:18.453Z,19.80
2019-02-07T06:41:25.195Z,20.77
2019-02-07T06:44:35.226Z,25.50
2019-02-07T06:47:38.392Z,23.00
2019-02-07T06:53:50.240Z,22.23
2019-02-07T06:56:35.424Z,22.03
2019-02-07T07:02:52.785Z,23.20
2019-02-07T07:05:59.238Z,27.83
2019-02-07T07:08:48.764Z,14.80
2019-02-07T07:11:59.016Z,39.03
2019-02-07T07:26:58.039Z,14.70
2019-02-07T07:36:18.551Z,24.00
2019-02-07T07:39:06.208Z,20.60
2019-02-07T07:41:53.907Z,22.10
2019-02-07T07:45:00.322Z,21.33
2019-02-07T07:48:08.218Z,22.27
2019-02-07T07:51:08.668Z,23.33
2019-02-07T07:54:12.336Z,25.90
2019-02-07T07:57:22.397Z,28.10
2019-02-07T08:00:34.034Z,24.67
2019-02-07T08:03:41.237Z,25.47
2019-02-07T08:06:23.497Z,21.33
2019-02-07T08:09:15.547Z,21.70
2019-02-07T08:12:14.366Z,22.87
2019-02-07T08:15:17.982Z,22.23
2019-02-07T08:18:21.572Z,25.77
2019-02-07T08:24:09.062Z,29.07
2019-02-07T08:30:13.924Z,22.73
2019-02-07T08:33:18.180Z,33.97
2019-02-07T08:36:20.988Z,28.80
2019-02-07T08:39:17.912Z,27.60
2019-02-07T08:42:06.108Z,25.00
2019-02-07T08:48:10.649Z,26.00
2019-02-07T08:51:11.855Z,33.23
2019-02-07T08:54:16.474Z,28.97
2019-02-07T08:56:57.651Z,27.17
2019-02-07T09:02:55.649Z,28.60
2019-02-07T09:05:57.108Z,27.47
2019-02-07T09:23:17.295Z,22.43
2019-02-07T09:41:13.272Z,38.20
2019-02-07T09:47:03.458Z,36.63
2019-02-07T09:55:54.937Z,34.13
2019-02-07T10:01:45.617Z,30.47
2019-02-07T10:04:50.828Z,26.23
2019-02-07T10:10:33.040Z,25.70
2019-02-07T10:13:25.811Z,22.07
2019-02-07T10:16:11.345Z,22.60
2019-02-07T10:27:51.622Z,23.40
2019-02-07T10:30:41.028Z,21.23
2019-02-07T10:33:37.232Z,15.00
2019-02-07T10:42:48.154Z,14.77
2019-02-07T10:45:44.984Z,15.77
2019-02-07T10:51:20.696Z,12.77
2019-02-07T10:54:25.101Z,15.87
2019-02-07T11:00:50.289Z,9.67
2019-02-07T11:06:35.004Z,8.30
2019-02-07T11:09:22.534Z,7.33
2019-02-07T11:15:17.952Z,8.87
2019-02-07T11:30:27.445Z,9.43
2019-02-07T11:36:12.417Z,6.73
2019-02-07T11:45:14.340Z,5.80
2019-02-07T11:51:07.381Z,8.30
2019-02-07T11:54:06.302Z,10.93
2019-02-07T11:59:54.292Z,8.60
2019-02-07T12:03:02.507Z,8.03
2019-02-07T12:11:48.583Z,7.20
2019-02-07T12:17:39.125Z,4.40
2019-02-07T12:20:26.836Z,4.07
2019-02-07T12:23:37.885Z,3.00
2019-02-07T12:26:45.356Z,2.90
2019-02-07T12:32:40.596Z,2.60
2019-02-07T12:38:10.466Z,2.37
2019-02-07T12:41:00.360Z,2.17
2019-02-07T12:43:42.297Z,4.20
2019-02-07T12:46:35.629Z,1.70
2019-02-07T12:49:29.006Z,1.10
2019-02-07T12:52:17.851Z,1.50
2019-02-07T12:55:00.025Z,2.17
2019-02-07T13:00:54.104Z,1.60
2019-02-07T13:06:59.704Z,1.70
2019-02-07T13:10:03.312Z,2.70
2019-02-07T13:13:04.383Z,2.20
2019-02-07T13:21:46.984Z,1.20
2019-02-07T13:28:00.814Z,2.73
2019-02-07T13:31:08.244Z,0.90
2019-02-07T13:33:56.179Z,1.10
2019-02-07T13:42:32.453Z,1.43
2019-02-07T13:48:38.192Z,1.77
2019-02-07T13:54:36.600Z,0.53
2019-02-07T14:00:40.380Z,0.60
2019-02-07T14:03:43.647Z,0.80
2019-02-07T14:06:32.889Z,0.60
2019-02-07T14:12:34.040Z,1.17
2019-02-07T14:15:15.038Z,1.33
2019-02-07T14:18:20.585Z,1.90
2019-02-07T14:24:15.960Z,4.33
2019-02-07T14:30:04.885Z,5.60
2019-02-07T14:36:14.064Z,8.37
2019-02-07T14:39:18.519Z,14.60
2019-02-07T14:42:19.848Z,8.57
2019-02-07T14:48:07.452Z,11.23
2019-02-07T14:50:50.644Z,11.23
2019-02-07T14:56:16.456Z,12.23
2019-02-07T14:59:01.310Z,13.97
2019-02-07T15:04:30.176Z,16.70
2019-02-07T15:10:09.845Z,21.70
2019-02-07T15:12:52.338Z,19.57
2019-02-07T15:15:34.684Z,22.60
2019-02-07T15:18:20.432Z,28.93
2019-02-07T15:21:09.645Z,29.40
2019-02-07T15:23:52.832Z,34.10
2019-02-07T15:29:25.694Z,39.40
2019-02-07T15:32:08.859Z,36.00
2019-02-07T15:34:53.815Z,46.37
2019-02-07T15:37:40.216Z,44.47
2019-02-07T15:40:29.257Z,46.63
2019-02-07T15:46:07.821Z,44.27
2019-02-07T15:48:51.546Z,43.20
2019-02-07T15:51:34.240Z,42.00
2019-02-07T15:54:16.835Z,40.77
2019-02-07T16:00:02.558Z,45.83
2019-02-07T16:31:08.252Z,52.50
2019-02-07T16:33:56.203Z,56.13
2019-02-07T16:45:47.183Z,78.77
2019-02-07T16:48:34.605Z,81.57
2019-02-07T16:51:16.963Z,69.10
2019-02-07T16:53:59.644Z,74.10
2019-02-07T16:59:37.922Z,74.53
2019-02-07T17:05:16.401Z,58.13
2019-02-07T17:07:58.138Z,60.63
2019-02-07T17:13:36.771Z,57.43
2019-02-07T17:19:20.541Z,61.97
2019-02-07T17:22:07.044Z,58.40
2019-02-07T17:27:45.300Z,45.10
2019-02-07T17:30:31.567Z,44.77
2019-02-07T17:33:13.904Z,58.70
2019-02-07T17:38:32.435Z,46.30
2019-02-07T17:41:14.771Z,50.40
2019-02-07T17:43:57.544Z,50.20
2019-02-07T17:46:44.673Z,52.23
2019-02-07T17:49:30.362Z,44.77
2019-02-07T17:52:13.562Z,39.17
2019-02-07T17:54:55.713Z,37.93
2019-02-07T18:00:43.336Z,38.87
2019-02-07T18:03:25.497Z,37.60
2019-02-07T18:06:07.927Z,35.93
2019-02-07T18:08:50.409Z,42.37
2019-02-07T18:11:33.012Z,39.77
2019-02-07T18:14:18.619Z,31.17
2019-02-07T18:17:10.452Z,33.13
2019-02-07T18:19:53.092Z,32.63
2019-02-07T18:22:35.408Z,32.77
2019-02-07T18:25:17.425Z,35.23
2019-02-07T18:27:59.820Z,28.87
2019-02-07T18:36:42.400Z,20.23
2019-02-07T18:39:24.535Z,24.00
2019-02-07T18:41:55.595Z,23.50
2019-02-07T18:44:50.389Z,22.67
2019-02-07T18:47:33.616Z,23.47
2019-02-07T18:50:15.539Z,16.60
2019-02-07T18:52:57.728Z,18.47
2019-02-07T18:55:39.776Z,17.77
2019-02-07T18:58:22.068Z,17.60
2019-02-07T19:01:04.613Z,17.27
2019-02-07T19:03:46.868Z,17.97
2019-02-07T19:06:29.003Z,17.50
2019-02-07T19:09:11.361Z,17.90
2019-02-07T19:11:53.372Z,17.43
2019-02-07T19:14:35.304Z,16.87
2019-02-07T19:17:17.336Z,16.17
2019-02-07T19:19:59.186Z,15.87
2019-02-07T19:22:41.630Z,13.03
2019-02-07T19:25:23.279Z,28.27
2019-02-07T19:28:05.241Z,19.97
2019-02-07T19:30:47.692Z,17.13
2019-02-07T19:33:29.880Z,19.93
2019-02-07T19:36:12.169Z,16.30
2019-02-07T19:38:53.917Z,15.37
2019-02-07T19:41:36.267Z,14.93
2019-02-07T19:44:18.240Z,20.87
2019-02-07T19:47:00.325Z,19.00
2019-02-07T19:49:42.349Z,25.60
2019-02-07T19:52:24.884Z,23.83
2019-02-07T19:55:07.403Z,24.27
2019-02-07T19:57:49.979Z,21.33
2019-02-07T20:00:32.316Z,22.17
2019-02-07T20:03:15.583Z,20.00
2019-02-07T20:05:57.781Z,21.50
2019-02-07T20:08:40.181Z,22.93
2019-02-07T20:11:22.348Z,21.13
2019-02-07T20:14:04.825Z,20.27
2019-02-07T20:16:35.726Z,18.43
2019-02-07T20:19:18.281Z,17.43
2019-02-07T20:22:00.393Z,19.40
2019-02-07T20:27:26.708Z,23.23
2019-02-07T20:29:57.363Z,24.40
2019-02-07T20:32:48.575Z,24.67
2019-02-07T20:35:30.340Z,26.17
2019-02-07T20:38:12.414Z,25.67
2019-02-07T20:40:54.988Z,27.83
2019-02-07T20:43:25.578Z,25.43
2019-02-07T20:46:07.809Z,25.83
2019-02-07T20:48:50.315Z,27.50
2019-02-07T20:51:32.381Z,23.97
2019-02-07T20:54:16.646Z,24.63
2019-02-07T20:57:02.547Z,23.40
2019-02-07T20:59:44.586Z,24.83
2019-02-07T21:02:28.944Z,29.97
2019-02-07T21:04:59.540Z,23.90
2019-02-07T21:07:41.324Z,28.17
2019-02-07T21:10:23.255Z,27.37
2019-02-07T21:13:05.559Z,31.60
2019-02-07T21:15:47.608Z,25.63
2019-02-07T21:18:29.812Z,30.13
2019-02-07T21:21:00.138Z,28.43
2019-02-07T21:23:49.916Z,27.00
2019-02-07T21:26:31.930Z,32.87
2019-02-07T21:29:14.264Z,29.03
2019-02-07T21:31:53.909Z,28.13
2019-02-07T21:34:35.795Z,26.90
2019-02-07T21:37:18.176Z,33.90
2019-02-07T21:40:01.826Z,33.10
2019-02-07T21:42:43.799Z,30.33
2019-02-07T21:48:13.821Z,29.90
2019-02-07T21:50:55.973Z,33.33
2019-02-07T21:53:38.647Z,30.77
2019-02-07T21:56:20.737Z,30.37
2019-02-07T21:59:02.740Z,31.80
2019-02-07T22:01:44.819Z,23.47
2019-02-07T22:04:27.351Z,24.40
2019-02-07T22:07:09.368Z,25.43
2019-02-07T22:09:52.608Z,26.50
2019-02-07T22:12:35.023Z,26.97
2019-02-07T22:15:17.373Z,27.30
2019-02-07T22:17:59.428Z,28.93
2019-02-07T22:20:41.478Z,28.07
2019-02-07T22:23:23.432Z,31.80
2019-02-07T22:26:05.483Z,25.20
2019-02-07T22:28:47.538Z,34.20
2019-02-07T22:31:29.772Z,31.40
2019-02-07T22:34:11.700Z,27.07
2019-02-07T22:36:54.056Z,27.90
2019-02-07T22:39:36.480Z,27.10
2019-02-07T22:42:19.156Z,26.63
2019-02-07T22:45:01.563Z,22.07
2019-02-07T22:47:43.962Z,29.30
2019-02-07T22:50:26.116Z,27.93
2019-02-07T22:53:08.427Z,24.93
2019-02-07T22:55:50.335Z,21.50
2019-02-07T22:58:32.216Z,30.73
2019-02-07T23:01:14.266Z,21.03
2019-02-07T23:03:56.004Z,23.63
2019-02-07T23:06:38.537Z,25.97
2019-02-07T23:09:20.983Z,21.33
2019-02-07T23:12:03.007Z,25.27
2019-02-07T23:14:44.859Z,23.87
2019-02-07T23:17:26.768Z,22.67
2019-02-07T23:20:08.854Z,25.13
2019-02-07T23:22:51.065Z,24.10
2019-02-07T23:25:33.275Z,24.57
2019-02-07T23:28:15.287Z,30.47
2019-02-07T23:30:57.271Z,23.17
2019-02-07T23:33:39.483Z,28.33
2019-02-07T23:36:21.367Z,30.43
2019-02-07T23:39:04.087Z,31.77
2019-02-07T23:41:46.647Z,29.77
2019-02-07T23:44:28.899Z,38.83
2019-02-07T23:47:10.599Z,29.30
2019-02-07T23:49:52.287Z,23.87
2019-02-07T23:52:34.711Z,34.13
2019-02-07T23:55:16.747Z,25.33
2019-02-07T23:57:59.112Z,26.23
